sensor_id;sensor_type;location;lat;lon;timestamp;pressure;altitude;pressure_sealevel;temperature;humidity
71976;BME280;60680;52.182;5.398;2022-12-24T00:02:14;100518.53;;;9.57;97.16
71976;BME280;60680;52.182;5.398;2022-12-24T00:04:41;100520.22;;;9.58;97.47
71976;BME280;60680;52.182;5.398;2022-12-24T00:07:07;100532.28;;;9.59;97.12
71976;BME280;60680;52.182;5.398;2022-12-24T00:09:34;100531.38;;;9.61;96.67
71976;BME280;60680;52.182;5.398;2022-12-24T00:12:00;100523.56;;;9.61;97.18
71976;BME280;60680;52.182;5.398;2022-12-24T00:14:27;100538.22;;;9.62;96.82
71976;BME280;60680;52.182;5.398;2022-12-24T00:16:54;100543.50;;;9.60;97.74
71976;BME280;60680;52.182;5.398;2022-12-24T00:19:21;100539.16;;;9.61;96.94
71976;BME280;60680;52.182;5.398;2022-12-24T00:21:47;100541.75;;;9.61;96.80
71976;BME280;60680;52.182;5.398;2022-12-24T00:24:14;100547.78;;;9.61;97.12
71976;BME280;60680;52.182;5.398;2022-12-24T00:26:40;100550.44;;;9.59;97.18
71976;BME280;60680;52.182;5.398;2022-12-24T00:29:07;100552.16;;;9.61;97.08
71976;BME280;60680;52.182;5.398;2022-12-24T00:31:34;100552.97;;;9.61;96.76
71976;BME280;60680;52.182;5.398;2022-12-24T00:34:01;100561.69;;;9.60;96.92
71976;BME280;60680;52.182;5.398;2022-12-24T00:36:27;100565.22;;;9.59;97.32
71976;BME280;60680;52.182;5.398;2022-12-24T00:38:54;100582.56;;;9.58;97.26
71976;BME280;60680;52.182;5.398;2022-12-24T00:41:21;100561.84;;;9.57;97.25
71976;BME280;60680;52.182;5.398;2022-12-24T00:43:53;100584.41;;;9.56;97.49
71976;BME280;60680;52.182;5.398;2022-12-24T00:46:21;100580.16;;;9.54;96.77
71976;BME280;60680;52.182;5.398;2022-12-24T00:48:48;100590.56;;;9.54;97.22
71976;BME280;60680;52.182;5.398;2022-12-24T00:51:15;100588.91;;;9.53;96.88
71976;BME280;60680;52.182;5.398;2022-12-24T00:53:42;100591.56;;;9.51;97.24
71976;BME280;60680;52.182;5.398;2022-12-24T00:56:09;100592.50;;;9.50;96.38
71976;BME280;60680;52.182;5.398;2022-12-24T00:58:35;100604.63;;;9.50;96.57
71976;BME280;60680;52.182;5.398;2022-12-24T01:01:02;100607.31;;;9.48;96.35
71976;BME280;60680;52.182;5.398;2022-12-24T01:03:29;100617.69;;;9.48;96.73
71976;BME280;60680;52.182;5.398;2022-12-24T01:06:08;100628.00;;;9.50;97.08
71976;BME280;60680;52.182;5.398;2022-12-24T01:08:35;100622.97;;;9.47;96.50
71976;BME280;60680;52.182;5.398;2022-12-24T01:11:04;100629.91;;;9.46;96.88
71976;BME280;60680;52.182;5.398;2022-12-24T01:13:31;100626.63;;;9.43;96.86
71976;BME280;60680;52.182;5.398;2022-12-24T01:15:57;100642.38;;;9.39;97.14
71976;BME280;60680;52.182;5.398;2022-12-24T01:18:24;100641.72;;;9.34;96.51
71976;BME280;60680;52.182;5.398;2022-12-24T01:20:59;100652.88;;;9.36;96.72
71976;BME280;60680;52.182;5.398;2022-12-24T01:23:27;100649.75;;;9.30;96.49
71976;BME280;60680;52.182;5.398;2022-12-24T01:25:54;100654.34;;;9.25;96.71
71976;BME280;60680;52.182;5.398;2022-12-24T01:28:20;100660.50;;;9.22;96.55
71976;BME280;60680;52.182;5.398;2022-12-24T01:30:47;100666.63;;;9.21;97.34
71976;BME280;60680;52.182;5.398;2022-12-24T01:33:14;100675.25;;;9.22;96.64
71976;BME280;60680;52.182;5.398;2022-12-24T01:35:42;100675.25;;;9.22;96.91
71976;BME280;60680;52.182;5.398;2022-12-24T01:38:09;100674.47;;;9.19;95.97
71976;BME280;60680;52.182;5.398;2022-12-24T01:40:38;100677.16;;;9.18;96.33
71976;BME280;60680;52.182;5.398;2022-12-24T01:43:25;100681.66;;;9.14;95.81
71976;BME280;60680;52.182;5.398;2022-12-24T01:46:19;100677.28;;;9.15;96.21
71976;BME280;60680;52.182;5.398;2022-12-24T01:48:51;100675.81;;;9.09;95.98
71976;BME280;60680;52.182;5.398;2022-12-24T01:51:34;100680.38;;;9.04;96.91
71976;BME280;60680;52.182;5.398;2022-12-24T01:54:05;100686.78;;;8.97;96.98
71976;BME280;60680;52.182;5.398;2022-12-24T01:56:34;100683.53;;;8.92;97.13
71976;BME280;60680;52.182;5.398;2022-12-24T01:59:05;100691.47;;;8.89;97.13
71976;BME280;60680;52.182;5.398;2022-12-24T02:01:33;100699.34;;;8.87;97.40
71976;BME280;60680;52.182;5.398;2022-12-24T02:04:04;100703.69;;;8.87;97.19
71976;BME280;60680;52.182;5.398;2022-12-24T02:06:34;100701.22;;;8.84;97.39
71976;BME280;60680;52.182;5.398;2022-12-24T02:09:01;100703.03;;;8.82;97.33
71976;BME280;60680;52.182;5.398;2022-12-24T02:11:29;100704.94;;;8.78;98.07
71976;BME280;60680;52.182;5.398;2022-12-24T02:13:58;100717.22;;;8.74;97.24
71976;BME280;60680;52.182;5.398;2022-12-24T02:16:32;100719.19;;;8.69;98.36
71976;BME280;60680;52.182;5.398;2022-12-24T02:19:11;100714.16;;;8.65;97.86
71976;BME280;60680;52.182;5.398;2022-12-24T02:22:00;100729.88;;;8.62;97.75
71976;BME280;60680;52.182;5.398;2022-12-24T02:25:10;100734.34;;;8.58;98.03
71976;BME280;60680;52.182;5.398;2022-12-24T02:27:54;100728.53;;;8.53;98.35
71976;BME280;60680;52.182;5.398;2022-12-24T02:30:25;100742.59;;;8.47;98.81
71976;BME280;60680;52.182;5.398;2022-12-24T02:35:54;100740.31;;;8.40;98.87
71976;BME280;60680;52.182;5.398;2022-12-24T02:38:28;100745.63;;;8.36;99.36
71976;BME280;60680;52.182;5.398;2022-12-24T02:41:01;100750.97;;;8.33;99.33
71976;BME280;60680;52.182;5.398;2022-12-24T02:43:34;100752.00;;;8.29;99.22
71976;BME280;60680;52.182;5.398;2022-12-24T02:46:06;100755.56;;;8.27;98.75
71976;BME280;60680;52.182;5.398;2022-12-24T02:48:35;100749.66;;;8.23;99.29
71976;BME280;60680;52.182;5.398;2022-12-24T02:51:06;100753.22;;;8.21;99.90
71976;BME280;60680;52.182;5.398;2022-12-24T02:53:33;100746.47;;;8.16;99.82
71976;BME280;60680;52.182;5.398;2022-12-24T02:58:56;100763.91;;;8.13;100.00
71976;BME280;60680;52.182;5.398;2022-12-24T03:02:08;100770.00;;;8.12;100.00
71976;BME280;60680;52.182;5.398;2022-12-24T03:07:19;100775.44;;;8.06;100.00
71976;BME280;60680;52.182;5.398;2022-12-24T03:13:14;100771.28;;;8.02;100.00
71976;BME280;60680;52.182;5.398;2022-12-24T03:15:32;100778.34;;;7.98;100.00
71976;BME280;60680;52.182;5.398;2022-12-24T03:18:01;100768.88;;;7.97;100.00
71976;BME280;60680;52.182;5.398;2022-12-24T03:20:38;100764.41;;;8.01;100.00
71976;BME280;60680;52.182;5.398;2022-12-24T03:23:05;100769.59;;;8.01;100.00
71976;BME280;60680;52.182;5.398;2022-12-24T03:25:34;100772.06;;;8.04;100.00
71976;BME280;60680;52.182;5.398;2022-12-24T03:28:05;100773.75;;;8.05;100.00
71976;BME280;60680;52.182;5.398;2022-12-24T03:30:33;100784.28;;;8.00;100.00
71976;BME280;60680;52.182;5.398;2022-12-24T03:33:00;100791.28;;;7.98;100.00
71976;BME280;60680;52.182;5.398;2022-12-24T03:35:26;100787.03;;;7.97;100.00
71976;BME280;60680;52.182;5.398;2022-12-24T03:37:53;100789.47;;;8.00;100.00
71976;BME280;60680;52.182;5.398;2022-12-24T03:40:19;100791.19;;;8.01;100.00
71976;BME280;60680;52.182;5.398;2022-12-24T03:42:46;100802.38;;;8.02;100.00
71976;BME280;60680;52.182;5.398;2022-12-24T03:45:13;100791.19;;;8.01;100.00
71976;BME280;60680;52.182;5.398;2022-12-24T03:47:39;100792.84;;;8.02;100.00
71976;BME280;60680;52.182;5.398;2022-12-24T03:50:06;100797.31;;;7.99;100.00
71976;BME280;60680;52.182;5.398;2022-12-24T03:52:33;100796.41;;;8.00;100.00
71976;BME280;60680;52.182;5.398;2022-12-24T03:54:59;100798.88;;;8.03;100.00
71976;BME280;60680;52.182;5.398;2022-12-24T03:57:26;100792.72;;;8.05;100.00
71976;BME280;60680;52.182;5.398;2022-12-24T03:59:52;100791.69;;;8.09;100.00
71976;BME280;60680;52.182;5.398;2022-12-24T04:02:19;100792.41;;;8.13;100.00
71976;BME280;60680;52.182;5.398;2022-12-24T04:04:46;100785.41;;;8.15;100.00
71976;BME280;60680;52.182;5.398;2022-12-24T04:07:12;100797.34;;;8.19;100.00
71976;BME280;60680;52.182;5.398;2022-12-24T04:09:39;100806.75;;;8.22;100.00
71976;BME280;60680;52.182;5.398;2022-12-24T04:12:06;100809.28;;;8.23;100.00
71976;BME280;60680;52.182;5.398;2022-12-24T04:14:33;100807.47;;;8.25;100.00
71976;BME280;60680;52.182;5.398;2022-12-24T04:16:59;100806.53;;;8.26;100.00
71976;BME280;60680;52.182;5.398;2022-12-24T04:19:26;100802.13;;;8.28;100.00
71976;BME280;60680;52.182;5.398;2022-12-24T04:21:53;100801.25;;;8.29;100.00
71976;BME280;60680;52.182;5.398;2022-12-24T04:24:20;100799.44;;;8.31;100.00
71976;BME280;60680;52.182;5.398;2022-12-24T04:26:46;100808.06;;;8.32;100.00
71976;BME280;60680;52.182;5.398;2022-12-24T04:29:13;100817.38;;;8.36;100.00
71976;BME280;60680;52.182;5.398;2022-12-24T04:31:39;100820.75;;;8.38;100.00
71976;BME280;60680;52.182;5.398;2022-12-24T04:34:06;100809.47;;;8.39;100.00
71976;BME280;60680;52.182;5.398;2022-12-24T04:36:33;100816.25;;;8.43;100.00
71976;BME280;60680;52.182;5.398;2022-12-24T04:38:59;100823.91;;;8.46;100.00
71976;BME280;60680;52.182;5.398;2022-12-24T04:41:26;100827.34;;;8.47;100.00
71976;BME280;60680;52.182;5.398;2022-12-24T04:43:54;100836.75;;;8.49;100.00
71976;BME280;60680;52.182;5.398;2022-12-24T04:46:23;100830.56;;;8.52;100.00
71976;BME280;60680;52.182;5.398;2022-12-24T04:48:51;100827.94;;;8.53;100.00
71976;BME280;60680;52.182;5.398;2022-12-24T04:51:18;100832.06;;;8.57;100.00
71976;BME280;60680;52.182;5.398;2022-12-24T04:53:45;100826.00;;;8.59;100.00
71976;BME280;60680;52.182;5.398;2022-12-24T04:56:17;100819.06;;;8.59;100.00
71976;BME280;60680;52.182;5.398;2022-12-24T04:58:44;100828.66;;;8.57;100.00
71976;BME280;60680;52.182;5.398;2022-12-24T05:01:12;100832.06;;;8.57;100.00
71976;BME280;60680;52.182;5.398;2022-12-24T05:03:39;100835.44;;;8.60;100.00
71976;BME280;60680;52.182;5.398;2022-12-24T05:06:08;100835.41;;;8.61;100.00
71976;BME280;60680;52.182;5.398;2022-12-24T05:08:36;100843.94;;;8.63;100.00
71976;BME280;60680;52.182;5.398;2022-12-24T05:11:03;100834.41;;;8.64;100.00
71976;BME280;60680;52.182;5.398;2022-12-24T05:13:30;100838.63;;;8.66;100.00
71976;BME280;60680;52.182;5.398;2022-12-24T05:16:10;100835.97;;;8.68;100.00
71976;BME280;60680;52.182;5.398;2022-12-24T05:18:37;100832.53;;;8.67;100.00
71976;BME280;60680;52.182;5.398;2022-12-24T05:21:14;100829.03;;;8.68;100.00
71976;BME280;60680;52.182;5.398;2022-12-24T05:23:42;100829.09;;;8.67;100.00
71976;BME280;60680;52.182;5.398;2022-12-24T05:26:50;100827.22;;;8.70;100.00
71976;BME280;60680;52.182;5.398;2022-12-24T05:29:19;100842.72;;;8.72;100.00
71976;BME280;60680;52.182;5.398;2022-12-24T05:31:45;100846.97;;;8.73;100.00
71976;BME280;60680;52.182;5.398;2022-12-24T05:34:13;100848.59;;;8.75;100.00
71976;BME280;60680;52.182;5.398;2022-12-24T05:36:40;100852.94;;;8.75;100.00
71976;BME280;60680;52.182;5.398;2022-12-24T05:39:07;100850.31;;;8.76;100.00
71976;BME280;60680;52.182;5.398;2022-12-24T05:41:40;100852.88;;;8.76;100.00
71976;BME280;60680;52.182;5.398;2022-12-24T05:44:07;100852.06;;;8.76;100.00
71976;BME280;60680;52.182;5.398;2022-12-24T05:46:33;100847.69;;;8.76;100.00
71976;BME280;60680;52.182;5.398;2022-12-24T05:49:00;100851.06;;;8.78;100.00
71976;BME280;60680;52.182;5.398;2022-12-24T05:51:26;100842.47;;;8.78;100.00
71976;BME280;60680;52.182;5.398;2022-12-24T05:53:54;100856.25;;;8.78;100.00
71976;BME280;60680;52.182;5.398;2022-12-24T05:56:22;100854.50;;;8.79;100.00
71976;BME280;60680;52.182;5.398;2022-12-24T05:58:49;100852.84;;;8.78;100.00
71976;BME280;60680;52.182;5.398;2022-12-24T06:01:18;100852.84;;;8.78;100.00
71976;BME280;60680;52.182;5.398;2022-12-24T06:03:44;100861.41;;;8.80;100.00
71976;BME280;60680;52.182;5.398;2022-12-24T06:06:13;100869.97;;;8.82;100.00
71976;BME280;60680;52.182;5.398;2022-12-24T06:08:41;100876.81;;;8.83;100.00
71976;BME280;60680;52.182;5.398;2022-12-24T06:11:11;100868.16;;;8.84;100.00
71976;BME280;60680;52.182;5.398;2022-12-24T06:13:40;100861.31;;;8.82;100.00
71976;BME280;60680;52.182;5.398;2022-12-24T06:16:09;100867.47;;;8.79;100.00
71976;BME280;60680;52.182;5.398;2022-12-24T06:18:37;100871.94;;;8.75;100.00
71976;BME280;60680;52.182;5.398;2022-12-24T06:21:04;100874.75;;;8.71;100.00
71976;BME280;60680;52.182;5.398;2022-12-24T06:23:33;100890.25;;;8.72;100.00
71976;BME280;60680;52.182;5.398;2022-12-24T06:26:01;100880.84;;;8.70;100.00
71976;BME280;60680;52.182;5.398;2022-12-24T06:28:30;100884.16;;;8.73;100.00
71976;BME280;60680;52.182;5.398;2022-12-24T06:30:57;100884.91;;;8.75;100.00
71976;BME280;60680;52.182;5.398;2022-12-24T06:33:30;100890.09;;;8.75;100.00
71976;BME280;60680;52.182;5.398;2022-12-24T06:35:57;100889.16;;;8.78;100.00
71976;BME280;60680;52.182;5.398;2022-12-24T06:38:23;100902.03;;;8.80;100.00
71976;BME280;60680;52.182;5.398;2022-12-24T06:40:50;100898.50;;;8.82;100.00
71976;BME280;60680;52.182;5.398;2022-12-24T06:43:16;100897.59;;;8.83;100.00
71976;BME280;60680;52.182;5.398;2022-12-24T06:45:44;100901.88;;;8.84;100.00
71976;BME280;60680;52.182;5.398;2022-12-24T06:48:12;100900.97;;;8.85;100.00
71976;BME280;60680;52.182;5.398;2022-12-24T06:50:39;100900.97;;;8.85;100.00
71976;BME280;60680;52.182;5.398;2022-12-24T06:53:06;100908.69;;;8.87;100.00
71976;BME280;60680;52.182;5.398;2022-12-24T06:55:33;100913.81;;;8.88;100.00
71976;BME280;60680;52.182;5.398;2022-12-24T06:57:59;100909.47;;;8.89;100.00
71976;BME280;60680;52.182;5.398;2022-12-24T07:00:26;100906.88;;;8.89;100.00
71976;BME280;60680;52.182;5.398;2022-12-24T07:03:25;100915.28;;;8.94;100.00
71976;BME280;60680;52.182;5.398;2022-12-24T07:06:04;100913.69;;;8.91;100.00
71976;BME280;60680;52.182;5.398;2022-12-24T07:12:10;100917.94;;;8.92;100.00
71976;BME280;60680;52.182;5.398;2022-12-24T07:14:36;100928.25;;;8.94;100.00
71976;BME280;60680;52.182;5.398;2022-12-24T07:17:03;100933.44;;;8.94;100.00
71976;BME280;60680;52.182;5.398;2022-12-24T07:19:30;100926.59;;;8.93;100.00
71976;BME280;60680;52.182;5.398;2022-12-24T07:21:59;100931.84;;;8.91;100.00
71976;BME280;60680;52.182;5.398;2022-12-24T07:25:05;100929.31;;;8.90;100.00
71976;BME280;60680;52.182;5.398;2022-12-24T07:28:21;100931.31;;;8.83;100.00
71976;BME280;60680;52.182;5.398;2022-12-24T07:31:12;100941.75;;;8.82;100.00
71976;BME280;60680;52.182;5.398;2022-12-24T07:33:39;100941.84;;;8.80;100.00
71976;BME280;60680;52.182;5.398;2022-12-24T07:36:07;100951.28;;;8.81;100.00
71976;BME280;60680;52.182;5.398;2022-12-24T07:38:36;100955.50;;;8.84;100.00
71976;BME280;60680;52.182;5.398;2022-12-24T07:41:03;100965.81;;;8.85;100.00
71976;BME280;60680;52.182;5.398;2022-12-24T07:43:31;100976.84;;;8.90;100.00
71976;BME280;60680;52.182;5.398;2022-12-24T07:45:58;100985.50;;;8.91;100.00
71976;BME280;60680;52.182;5.398;2022-12-24T07:48:26;100987.97;;;8.94;100.00
71976;BME280;60680;52.182;5.398;2022-12-24T07:50:53;100993.97;;;8.94;100.00
71976;BME280;60680;52.182;5.398;2022-12-24T07:53:22;101002.56;;;8.96;100.00
71976;BME280;60680;52.182;5.398;2022-12-24T07:55:48;101006.84;;;8.97;100.00
71976;BME280;60680;52.182;5.398;2022-12-24T07:58:15;101012.09;;;8.96;100.00
71976;BME280;60680;52.182;5.398;2022-12-24T08:00:41;101013.81;;;8.97;100.00
71976;BME280;60680;52.182;5.398;2022-12-24T08:03:16;101030.16;;;8.99;100.00
71976;BME280;60680;52.182;5.398;2022-12-24T08:05:43;101030.16;;;8.99;100.00
71976;BME280;60680;52.182;5.398;2022-12-24T08:08:09;101032.75;;;8.99;100.00
71976;BME280;60680;52.182;5.398;2022-12-24T08:10:40;101032.66;;;9.01;100.00
71976;BME280;60680;52.182;5.398;2022-12-24T08:13:07;101043.06;;;9.01;100.00
71976;BME280;60680;52.182;5.398;2022-12-24T08:15:34;101043.06;;;9.01;100.00
71976;BME280;60680;52.182;5.398;2022-12-24T08:18:00;101046.50;;;9.01;100.00
71976;BME280;60680;52.182;5.398;2022-12-24T08:20:27;101036.97;;;9.02;100.00
71976;BME280;60680;52.182;5.398;2022-12-24T08:22:53;101044.75;;;9.02;100.00
71976;BME280;60680;52.182;5.398;2022-12-24T08:25:20;101052.59;;;9.00;100.00
71976;BME280;60680;52.182;5.398;2022-12-24T08:27:46;101052.59;;;9.00;100.00
71976;BME280;60680;52.182;5.398;2022-12-24T08:30:13;101062.97;;;9.00;100.00
71976;BME280;60680;52.182;5.398;2022-12-24T08:32:46;101065.53;;;9.02;100.00
71976;BME280;60680;52.182;5.398;2022-12-24T08:35:13;101065.38;;;9.05;100.00
71976;BME280;60680;52.182;5.398;2022-12-24T08:37:39;101061.75;;;9.09;100.00
71976;BME280;60680;52.182;5.398;2022-12-24T08:40:06;101065.09;;;9.12;100.00
71976;BME280;60680;52.182;5.398;2022-12-24T08:42:32;101066.75;;;9.13;100.00
71976;BME280;60680;52.182;5.398;2022-12-24T08:44:59;101072.88;;;9.12;100.00
71976;BME280;60680;52.182;5.398;2022-12-24T08:47:25;101075.47;;;9.12;100.00
71976;BME280;60680;52.182;5.398;2022-12-24T08:49:52;101084.88;;;9.15;100.00
71976;BME280;60680;52.182;5.398;2022-12-24T08:52:18;101092.56;;;9.18;100.00
71976;BME280;60680;52.182;5.398;2022-12-24T08:54:45;101087.22;;;9.21;100.00
71976;BME280;60680;52.182;5.398;2022-12-24T08:57:11;101099.22;;;9.24;100.00
71976;BME280;60680;52.182;5.398;2022-12-24T08:59:39;101096.59;;;9.25;100.00
71976;BME280;60680;52.182;5.398;2022-12-24T09:02:07;101089.53;;;9.29;100.00
71976;BME280;60680;52.182;5.398;2022-12-24T09:04:37;101103.28;;;9.31;100.00
71976;BME280;60680;52.182;5.398;2022-12-24T09:07:06;101107.50;;;9.33;100.00
71976;BME280;60680;52.182;5.398;2022-12-24T09:09:32;101102.22;;;9.35;100.00
71976;BME280;60680;52.182;5.398;2022-12-24T09:12:04;101118.59;;;9.37;100.00
71976;BME280;60680;52.182;5.398;2022-12-24T09:14:31;101118.53;;;9.38;100.00
71976;BME280;60680;52.182;5.398;2022-12-24T09:16:58;101112.50;;;9.38;100.00
71976;BME280;60680;52.182;5.398;2022-12-24T09:19:26;101129.75;;;9.39;100.00
71976;BME280;60680;52.182;5.398;2022-12-24T09:21:52;101131.47;;;9.40;100.00
71976;BME280;60680;52.182;5.398;2022-12-24T09:24:19;101129.66;;;9.42;100.00
71976;BME280;60680;52.182;5.398;2022-12-24T09:26:45;101139.13;;;9.43;100.00
71976;BME280;60680;52.182;5.398;2022-12-24T09:29:22;101148.56;;;9.46;100.00
71976;BME280;60680;52.182;5.398;2022-12-24T09:31:49;101152.84;;;9.47;100.00
71976;BME280;60680;52.182;5.398;2022-12-24T09:34:15;101145.00;;;9.48;100.00
71976;BME280;60680;52.182;5.398;2022-12-24T09:36:41;101148.47;;;9.47;100.00
71976;BME280;60680;52.182;5.398;2022-12-24T09:39:08;101162.41;;;9.46;100.00
71976;BME280;60680;52.182;5.398;2022-12-24T09:44:28;101160.59;;;9.48;100.00
71976;BME280;60680;52.182;5.398;2022-12-24T09:46:56;101162.31;;;9.48;100.00
71976;BME280;60680;52.182;5.398;2022-12-24T09:49:37;101170.78;;;9.53;100.00
71976;BME280;60680;52.182;5.398;2022-12-24T09:52:09;101173.25;;;9.56;100.00
71976;BME280;60680;52.182;5.398;2022-12-24T09:54:40;101169.81;;;9.55;100.00
71976;BME280;60680;52.182;5.398;2022-12-24T09:57:30;101164.75;;;9.52;100.00
71976;BME280;60680;52.182;5.398;2022-12-24T10:00:00;101161.38;;;9.50;100.00
71976;BME280;60680;52.182;5.398;2022-12-24T10:02:26;101170.72;;;9.54;100.00
71976;BME280;60680;52.182;5.398;2022-12-24T10:04:53;101168.53;;;9.66;100.00
71976;BME280;60680;52.182;5.398;2022-12-24T10:07:36;101174.25;;;9.74;99.99
71976;BME280;60680;52.182;5.398;2022-12-24T10:10:38;101181.78;;;9.80;99.70
71976;BME280;60680;52.182;5.398;2022-12-24T10:13:35;101180.63;;;9.87;99.99
71976;BME280;60680;52.182;5.398;2022-12-24T10:19:02;101181.16;;;10.16;99.08
71976;BME280;60680;52.182;5.398;2022-12-24T10:24:19;101188.16;;;10.34;97.58
71976;BME280;60680;52.182;5.398;2022-12-24T10:29:36;101183.13;;;10.50;97.06
71976;BME280;60680;52.182;5.398;2022-12-24T10:34:40;101171.03;;;10.49;96.81
71976;BME280;60680;52.182;5.398;2022-12-24T10:37:15;101184.97;;;10.48;96.25
71976;BME280;60680;52.182;5.398;2022-12-24T10:39:42;101180.66;;;10.47;96.06
71976;BME280;60680;52.182;5.398;2022-12-24T10:42:09;101185.53;;;10.55;95.63
71976;BME280;60680;52.182;5.398;2022-12-24T10:44:38;101190.59;;;10.58;95.61
71976;BME280;60680;52.182;5.398;2022-12-24T10:47:06;101196.06;;;10.52;95.60
71976;BME280;60680;52.182;5.398;2022-12-24T10:52:19;101190.94;;;10.50;95.65
71976;BME280;60680;52.182;5.398;2022-12-24T10:57:33;101185.66;;;10.52;95.01
71976;BME280;60680;52.182;5.398;2022-12-24T11:00:00;101187.34;;;10.53;94.68
71976;BME280;60680;52.182;5.398;2022-12-24T11:02:28;101192.50;;;10.54;94.74
71976;BME280;60680;52.182;5.398;2022-12-24T11:04:55;101202.19;;;10.51;94.22
71976;BME280;60680;52.182;5.398;2022-12-24T11:07:25;101202.47;;;10.45;94.06
71976;BME280;60680;52.182;5.398;2022-12-24T11:09:57;101207.66;;;10.45;94.52
71976;BME280;60680;52.182;5.398;2022-12-24T11:12:39;101208.59;;;10.44;93.91
71976;BME280;60680;52.182;5.398;2022-12-24T11:15:32;101201.69;;;10.43;94.34
71976;BME280;60680;52.182;5.398;2022-12-24T11:18:03;101199.03;;;10.44;94.31
71976;BME280;60680;52.182;5.398;2022-12-24T11:20:32;101199.22;;;10.39;93.91
71976;BME280;60680;52.182;5.398;2022-12-24T11:23:00;101209.69;;;10.38;93.92
71976;BME280;60680;52.182;5.398;2022-12-24T11:25:29;101213.91;;;10.40;94.45
71976;BME280;60680;52.182;5.398;2022-12-24T11:28:23;101214.47;;;10.47;93.89
71976;BME280;60680;52.182;5.398;2022-12-24T11:31:18;101211.25;;;10.42;93.74
71976;BME280;60680;52.182;5.398;2022-12-24T11:33:50;101209.91;;;10.33;93.38
71976;BME280;60680;52.182;5.398;2022-12-24T11:36:22;101217.16;;;10.25;94.46
71976;BME280;60680;52.182;5.398;2022-12-24T11:38:56;101224.38;;;10.18;93.78
71976;BME280;60680;52.182;5.398;2022-12-24T11:41:25;101210.78;;;10.12;93.27
71976;BME280;60680;52.182;5.398;2022-12-24T11:43:59;101211.84;;;10.08;93.54
71976;BME280;60680;52.182;5.398;2022-12-24T11:46:38;101209.44;;;10.03;93.02
71976;BME280;60680;52.182;5.398;2022-12-24T11:51:39;101221.91;;;9.95;91.62
71976;BME280;60680;52.182;5.398;2022-12-24T11:54:15;101228.66;;;9.99;91.62
71976;BME280;60680;52.182;5.398;2022-12-24T11:56:48;101236.53;;;9.97;92.07
71976;BME280;60680;52.182;5.398;2022-12-24T11:59:18;101230.16;;;10.05;92.30
71976;BME280;60680;52.182;5.398;2022-12-24T12:01:56;101227.50;;;10.06;91.72
71976;BME280;60680;52.182;5.398;2022-12-24T12:04:27;101222.22;;;10.08;92.06
71976;BME280;60680;52.182;5.398;2022-12-24T12:06:59;101230.94;;;10.07;92.01
71976;BME280;60680;52.182;5.398;2022-12-24T12:09:37;101232.69;;;10.06;91.67
71976;BME280;60680;52.182;5.398;2022-12-24T12:12:14;101252.19;;;10.16;91.55
71976;BME280;60680;52.182;5.398;2022-12-24T12:14:58;101246.59;;;10.26;91.95
71976;BME280;60680;52.182;5.398;2022-12-24T12:17:39;101238.75;;;10.27;90.93
71976;BME280;60680;52.182;5.398;2022-12-24T12:20:21;101241.28;;;10.29;90.80
71976;BME280;60680;52.182;5.398;2022-12-24T12:22:59;101256.09;;;10.27;91.03
71976;BME280;60680;52.182;5.398;2022-12-24T12:25:39;101262.25;;;10.24;90.19
71976;BME280;60680;52.182;5.398;2022-12-24T12:28:18;101267.41;;;10.26;91.27
71976;BME280;60680;52.182;5.398;2022-12-24T12:30:59;101263.03;;;10.26;90.48
71976;BME280;60680;52.182;5.398;2022-12-24T12:33:34;101266.50;;;10.27;90.07
71976;BME280;60680;52.182;5.398;2022-12-24T12:36:07;101269.94;;;10.27;90.33
71976;BME280;60680;52.182;5.398;2022-12-24T12:38:35;101271.63;;;10.28;90.57
71976;BME280;60680;52.182;5.398;2022-12-24T12:41:26;101268.25;;;10.26;89.61
71976;BME280;60680;52.182;5.398;2022-12-24T12:58:01;101284.00;;;10.23;88.81
71976;BME280;60680;52.182;5.398;2022-12-24T13:00:33;101280.56;;;10.23;88.79
71976;BME280;60680;52.182;5.398;2022-12-24T13:08:37;101294.13;;;10.31;88.62
71976;BME280;60680;52.182;5.398;2022-12-24T13:14:10;101295.69;;;10.35;87.78
71976;BME280;60680;52.182;5.398;2022-12-24T13:22:24;101287.34;;;10.47;86.40
71976;BME280;60680;52.182;5.398;2022-12-24T13:24:54;101286.38;;;10.50;87.49
71976;BME280;60680;52.182;5.398;2022-12-24T13:27:29;101290.34;;;10.58;87.94
71976;BME280;60680;52.182;5.398;2022-12-24T13:32:47;101297.94;;;10.63;87.77
71976;BME280;60680;52.182;5.398;2022-12-24T13:37:45;101306.78;;;10.59;86.43
71976;BME280;60680;52.182;5.398;2022-12-24T13:40:16;101314.72;;;10.56;86.10
71976;BME280;60680;52.182;5.398;2022-12-24T13:50:39;101331.19;;;10.36;86.47
71976;BME280;60680;52.182;5.398;2022-12-24T13:56:41;101336.00;;;10.23;86.49
71976;BME280;60680;52.182;5.398;2022-12-24T13:58:50;101341.34;;;10.20;87.55
71976;BME280;60680;52.182;5.398;2022-12-24T14:01:32;101349.00;;;10.23;87.17
71976;BME280;60680;52.182;5.398;2022-12-24T14:04:01;101343.66;;;10.26;88.02
71976;BME280;60680;52.182;5.398;2022-12-24T14:09:04;101354.16;;;10.25;87.61
71976;BME280;60680;52.182;5.398;2022-12-24T14:14:38;101358.59;;;10.23;87.40
71976;BME280;60680;52.182;5.398;2022-12-24T14:19:49;101364.63;;;10.23;88.64
71976;BME280;60680;52.182;5.398;2022-12-24T14:22:30;101364.75;;;10.20;88.44
71976;BME280;60680;52.182;5.398;2022-12-24T14:25:19;101365.66;;;10.19;87.83
71976;BME280;60680;52.182;5.398;2022-12-24T14:27:55;101359.81;;;10.14;87.63
71976;BME280;60680;52.182;5.398;2022-12-24T14:30:26;101361.72;;;10.09;88.36
71976;BME280;60680;52.182;5.398;2022-12-24T14:32:53;101361.72;;;10.09;88.48
71976;BME280;60680;52.182;5.398;2022-12-24T14:35:37;101361.72;;;10.09;87.77
71976;BME280;60680;52.182;5.398;2022-12-24T14:38:11;101366.03;;;10.10;88.52
71976;BME280;60680;52.182;5.398;2022-12-24T14:40:52;101374.66;;;10.10;88.68
71976;BME280;60680;52.182;5.398;2022-12-24T14:46:19;101384.41;;;10.05;89.30